Time;durP1;ratioP1;P1;durP2;ratioP2;P2;SDS_P1;SDS_P2;PMS_P1;PMS_P2;Temp;Humidity;BMP_temperature;BMP_pressure;BME280_temperature;BME280_humidity;BME280_pressure;Samples;Min_cycle;Max_cycle;Signal;HPM_P1;HPM_P2
2021/08/16 00:01:47;;;;;;;140.03;42.83;;;20.30;99.90;;;;;;5094555;28;20211;-72
2021/08/16 00:04:16;;;;;;;118.37;48.10;;;20.30;99.90;;;;;;5090920;28;20476;-72
2021/08/16 00:06:44;;;;;;;147.57;48.00;;;20.20;99.90;;;;;;5093995;28;20455;-71
2021/08/16 00:09:13;;;;;;;141.93;50.23;;;20.20;99.90;;;;;;5093955;28;20433;-71
2021/08/16 00:11:41;;;;;;;163.40;57.83;;;20.10;99.90;;;;;;5092648;28;20459;-71
2021/08/16 00:14:09;;;;;;;149.97;54.30;;;20.00;99.90;;;;;;5094009;28;20551;-71
2021/08/16 00:16:37;;;;;;;72.47;23.88;;;20.00;99.90;;;;;;5092383;28;20448;-71
2021/08/16 00:19:05;;;;;;;175.50;49.93;;;20.00;99.90;;;;;;5093848;28;20183;-71
2021/08/16 00:21:34;;;;;;;157.47;51.63;;;20.00;99.90;;;;;;5094156;28;20832;-71
2021/08/16 00:24:02;;;;;;;7.10;4.60;;;20.00;99.90;;;;;;5092639;28;20452;-71
2021/08/16 00:26:31;;;;;;;106.83;41.90;;;20.00;99.90;;;;;;5093476;28;20193;-71
2021/08/16 00:29:00;;;;;;;121.23;50.93;;;20.00;99.90;;;;;;5092710;28;20447;-71
2021/08/16 00:31:28;;;;;;;132.27;52.13;;;19.90;99.90;;;;;;5093715;28;20429;-71
2021/08/16 00:33:57;;;;;;;153.73;50.53;;;19.90;99.90;;;;;;5092229;28;20468;-72
2021/08/16 00:36:25;;;;;;;125.73;52.77;;;19.90;99.90;;;;;;5092321;28;20440;-72
2021/08/16 00:38:55;;;;;;;151.83;55.03;;;19.80;99.90;;;;;;5092228;28;20445;-71
2021/08/16 00:41:23;;;;;;;133.73;49.73;;;19.80;99.90;;;;;;5094001;28;20475;-71
2021/08/16 00:43:52;;;;;;;6.43;4.60;;;19.70;99.90;;;;;;5092254;28;20453;-71
2021/08/16 00:46:21;;;;;;;128.57;48.57;;;19.80;99.90;;;;;;5093208;28;20198;-72
2021/08/16 00:48:49;;;;;;;7.50;5.40;;;19.80;99.90;;;;;;5092803;28;20531;-71
2021/08/16 00:51:18;;;;;;;143.37;45.57;;;19.80;99.90;;;;;;5093557;28;20226;-72
2021/08/16 00:53:46;;;;;;;135.93;49.00;;;19.70;99.90;;;;;;5092107;28;20486;-72
2021/08/16 00:56:16;;;;;;;164.83;50.73;;;19.70;99.90;;;;;;5093596;28;20440;-71
2021/08/16 00:58:44;;;;;;;143.33;54.00;;;19.60;99.90;;;;;;5093380;28;20443;-71
2021/08/16 01:01:12;;;;;;;136.53;48.90;;;19.60;99.90;;;;;;5093541;28;20515;-72
2021/08/16 01:03:41;;;;;;;140.27;44.73;;;19.60;99.90;;;;;;5093198;28;20488;-71
2021/08/16 01:06:09;;;;;;;149.90;54.73;;;19.50;99.90;;;;;;5092043;28;20448;-72
2021/08/16 01:08:37;;;;;;;7.00;5.20;;;19.50;99.90;;;;;;5092790;28;20447;-71
2021/08/16 01:11:05;;;;;;;111.13;49.60;;;19.50;99.90;;;;;;5092996;28;20201;-71
2021/08/16 01:13:35;;;;;;;97.33;36.33;;;19.50;99.90;;;;;;5093126;28;20429;-71
2021/08/16 01:16:05;;;;;;;135.90;50.20;;;19.40;99.90;;;;;;5095256;28;20524;-71
2021/08/16 01:18:35;;;;;;;177.30;56.30;;;19.40;99.90;;;;;;5097617;28;20486;-71
2021/08/16 01:21:05;;;;;;;153.90;50.20;;;19.40;99.90;;;;;;5097774;28;20438;-71
2021/08/16 01:23:33;;;;;;;156.93;47.70;;;19.40;99.90;;;;;;5097355;28;20955;-71
2021/08/16 01:26:02;;;;;;;133.83;50.70;;;19.30;99.90;;;;;;5097611;28;20432;-71
2021/08/16 01:28:31;;;;;;;181.33;53.77;;;19.30;99.90;;;;;;5097996;28;20464;-71
2021/08/16 01:31:02;;;;;;;131.80;46.90;;;19.30;99.90;;;;;;5096939;28;20441;-71
2021/08/16 01:33:31;;;;;;;77.05;26.23;;;19.20;99.90;;;;;;5096301;28;20469;-71
2021/08/16 01:35:59;;;;;;;163.17;52.43;;;19.20;99.90;;;;;;5095632;28;20662;-71
2021/08/16 01:38:29;;;;;;;135.57;49.60;;;19.20;99.90;;;;;;5096904;28;20931;-71
2021/08/16 01:40:58;;;;;;;8.05;5.60;;;19.10;99.90;;;;;;5094627;28;20443;-71
2021/08/16 01:43:26;;;;;;;131.63;50.43;;;19.20;99.90;;;;;;5096819;28;20222;-71
2021/08/16 01:45:56;;;;;;;118.83;48.47;;;19.10;99.90;;;;;;5096740;28;20779;-71
2021/08/16 01:48:24;;;;;;;161.03;47.80;;;19.10;99.90;;;;;;5097125;28;20492;-71
2021/08/16 01:50:52;;;;;;;129.07;43.03;;;19.00;99.90;;;;;;5096688;28;20428;-71
2021/08/16 01:53:20;;;;;;;161.33;46.10;;;19.00;99.90;;;;;;5096120;28;20989;-71
2021/08/16 01:55:48;;;;;;;99.97;45.23;;;18.90;99.90;;;;;;5095425;28;20451;-71
2021/08/16 01:58:17;;;;;;;150.40;46.93;;;18.90;99.90;;;;;;5096353;28;20444;-71
2021/08/16 02:00:45;;;;;;;7.63;6.32;;;18.90;99.90;;;;;;5095366;28;20420;-71
2021/08/16 02:03:15;;;;;;;110.40;36.27;;;18.90;99.90;;;;;;5096300;28;20206;-71
2021/08/16 02:05:43;;;;;;;43.50;18.23;;;18.90;99.90;;;;;;5094670;28;20432;-71
2021/08/16 02:08:12;;;;;;;126.07;39.17;;;18.90;99.90;;;;;;5096635;28;20211;-71
2021/08/16 02:10:40;;;;;;;107.37;46.83;;;18.90;99.90;;;;;;5096558;28;20444;-71
2021/08/16 02:13:10;;;;;;;135.97;49.93;;;18.80;99.90;;;;;;5096199;28;20457;-71
2021/08/16 02:15:38;;;;;;;107.53;46.17;;;18.80;99.90;;;;;;5096539;28;20453;-71
2021/08/16 02:18:07;;;;;;;141.43;45.30;;;18.70;99.90;;;;;;5092619;28;20543;-71
2021/08/16 02:20:37;;;;;;;125.00;48.53;;;18.70;99.90;;;;;;5096255;28;20444;-71
2021/08/16 02:23:05;;;;;;;134.53;44.90;;;18.60;99.90;;;;;;5095920;28;20978;-71
2021/08/16 02:25:33;;;;;;;77.25;31.98;;;18.60;99.90;;;;;;5095885;28;20780;-71
2021/08/16 02:28:01;;;;;;;113.93;41.83;;;18.50;99.90;;;;;;5095065;28;20623;-71
2021/08/16 02:30:30;;;;;;;113.33;46.67;;;18.50;99.90;;;;;;5096348;28;20441;-71
2021/08/16 02:32:58;;;;;;;10.10;7.60;;;18.50;99.90;;;;;;5094954;28;20437;-71
2021/08/16 02:35:26;;;;;;;113.30;36.40;;;18.50;99.90;;;;;;5096023;28;20190;-71
2021/08/16 02:37:56;;;;;;;109.67;36.70;;;18.50;99.90;;;;;;5095476;28;20943;-71
2021/08/16 02:40:24;;;;;;;120.03;40.80;;;18.50;99.90;;;;;;5095034;28;20866;-71
2021/08/16 02:42:52;;;;;;;160.03;53.07;;;18.50;99.90;;;;;;5094223;28;20479;-71
2021/08/16 02:45:20;;;;;;;157.33;43.60;;;18.40;99.90;;;;;;5094237;28;20441;-71
2021/08/16 02:47:48;;;;;;;152.37;46.43;;;18.40;99.90;;;;;;5095538;28;20445;-71
2021/08/16 02:50:16;;;;;;;132.03;45.40;;;18.40;99.90;;;;;;5095430;28;20810;-71
2021/08/16 02:52:45;;;;;;;158.67;49.47;;;18.40;99.90;;;;;;5095380;28;20476;-71
2021/08/16 02:55:14;;;;;;;12.25;8.60;;;18.30;99.90;;;;;;5093618;28;20435;-71
2021/08/16 02:57:42;;;;;;;131.43;39.90;;;18.30;99.90;;;;;;5094021;28;20191;-72
2021/08/16 03:00:12;;;;;;;133.40;39.47;;;18.30;99.90;;;;;;5095469;28;20535;-72
2021/08/16 03:02:41;;;;;;;9.80;8.30;;;18.30;99.90;;;;;;5093684;28;20448;-71
2021/08/16 03:05:10;;;;;;;141.13;39.30;;;18.40;99.90;;;;;;5093717;28;20210;-71
2021/08/16 03:07:38;;;;;;;106.83;44.17;;;18.40;99.90;;;;;;5095433;28;20782;-71
2021/08/16 03:10:08;;;;;;;142.27;42.33;;;18.30;99.90;;;;;;5095055;28;20491;-71
2021/08/16 03:12:38;;;;;;;112.37;39.17;;;18.30;99.90;;;;;;5095341;28;20448;-71
2021/08/16 03:15:07;;;;;;;171.53;43.63;;;18.30;99.90;;;;;;5095000;28;20441;-71
2021/08/16 03:17:36;;;;;;;137.30;35.97;;;18.30;99.90;;;;;;5110732;28;20448;-71
2021/08/16 03:20:06;;;;;;;147.53;45.70;;;18.30;99.90;;;;;;5094900;28;20443;-71
2021/08/16 03:22:34;;;;;;;11.80;9.13;;;18.20;99.90;;;;;;5093574;28;20807;-71
2021/08/16 03:25:02;;;;;;;111.17;37.37;;;18.30;99.90;;;;;;5094772;28;20658;-71
2021/08/16 03:27:31;;;;;;;135.67;43.57;;;18.30;99.90;;;;;;5094841;28;20433;-71
2021/08/16 03:30:02;;;;;;;135.10;47.30;;;18.30;99.90;;;;;;5095074;28;20437;-71
2021/08/16 03:32:30;;;;;;;166.37;46.63;;;18.30;99.90;;;;;;5094864;28;20453;-71
2021/08/16 03:34:58;;;;;;;148.77;42.17;;;18.30;99.90;;;;;;5094333;28;20462;-71
2021/08/16 03:37:31;;;;;;;150.33;49.37;;;18.30;99.90;;;;;;5095086;28;20494;-71
2021/08/16 03:40:00;;;;;;;158.77;48.60;;;18.30;99.90;;;;;;5095264;28;20417;-71
2021/08/16 03:42:28;;;;;;;161.60;47.37;;;18.20;99.90;;;;;;5094425;28;20448;-71
2021/08/16 03:44:56;;;;;;;142.40;41.53;;;18.20;99.90;;;;;;5094907;28;20464;-71
2021/08/16 03:47:26;;;;;;;140.40;46.70;;;18.20;99.90;;;;;;5094743;28;20802;-71
2021/08/16 03:49:54;;;;;;;11.70;9.15;;;18.20;99.90;;;;;;5093595;28;20436;-71
2021/08/16 03:52:22;;;;;;;107.73;39.60;;;18.30;99.90;;;;;;5093069;28;20592;-71
2021/08/16 03:54:50;;;;;;;54.38;20.35;;;18.30;99.90;;;;;;5094308;28;20436;-71
2021/08/16 03:57:18;;;;;;;113.13;41.07;;;18.30;99.90;;;;;;5094448;28;20195;-71
2021/08/16 03:59:46;;;;;;;124.43;40.07;;;18.30;99.90;;;;;;5094072;28;20443;-71
2021/08/16 04:02:15;;;;;;;147.03;43.13;;;18.30;99.90;;;;;;5091633;28;20547;-71
2021/08/16 04:04:45;;;;;;;140.17;43.10;;;18.30;99.90;;;;;;5094003;28;20819;-71
2021/08/16 04:07:13;;;;;;;164.93;48.20;;;18.20;99.90;;;;;;5094367;28;20439;-71
2021/08/16 04:09:41;;;;;;;126.67;44.80;;;18.20;99.90;;;;;;5094622;28;20437;-71
2021/08/16 04:12:10;;;;;;;140.67;34.37;;;18.20;99.90;;;;;;5093899;28;20441;-71
2021/08/16 04:14:38;;;;;;;124.37;43.47;;;18.20;99.90;;;;;;5094134;28;20519;-71
2021/08/16 04:17:06;;;;;;;122.53;43.87;;;18.20;99.90;;;;;;5093892;28;20436;-71
2021/08/16 04:19:34;;;;;;;158.30;42.00;;;18.20;99.90;;;;;;5093987;28;20443;-71
2021/08/16 04:22:04;;;;;;;36.20;13.90;;;18.10;99.90;;;;;;5093235;28;20440;-71
2021/08/16 04:24:32;;;;;;;113.93;36.50;;;18.20;99.90;;;;;;5093936;28;20230;-70
2021/08/16 04:27:00;;;;;;;166.53;43.90;;;18.20;99.90;;;;;;5093659;28;20449;-71
2021/08/16 04:29:28;;;;;;;132.20;40.70;;;18.10;99.90;;;;;;5090314;28;20460;-71
2021/08/16 04:31:57;;;;;;;149.10;41.20;;;18.20;99.90;;;;;;5093829;28;20455;-71
2021/08/16 04:34:25;;;;;;;182.00;45.00;;;18.10;99.90;;;;;;5092401;28;20535;-71
2021/08/16 04:36:53;;;;;;;133.20;44.67;;;18.10;99.90;;;;;;5093571;28;20428;-71
2021/08/16 04:39:23;;;;;;;149.87;39.57;;;18.10;99.90;;;;;;5094110;28;20433;-71
2021/08/16 04:41:51;;;;;;;117.00;39.60;;;18.10;99.90;;;;;;5093643;28;20932;-71
2021/08/16 04:44:19;;;;;;;148.17;42.33;;;18.10;99.90;;;;;;5093579;28;20810;-71
2021/08/16 04:46:47;;;;;;;121.17;39.23;;;18.10;99.90;;;;;;5093396;28;20463;-71
2021/08/16 04:49:15;;;;;;;14.77;8.40;;;18.10;99.90;;;;;;5092456;28;20879;-71
2021/08/16 04:51:43;;;;;;;107.07;34.03;;;18.10;99.90;;;;;;5093051;28;20202;-71
2021/08/16 04:54:11;;;;;;;134.23;47.27;;;18.10;99.90;;;;;;5094188;28;20865;-71
2021/08/16 04:56:42;;;;;;;175.30;47.83;;;18.10;99.90;;;;;;5093251;28;20931;-72
2021/08/16 04:59:11;;;;;;;132.93;46.23;;;18.10;99.90;;;;;;5092146;28;20511;-72
2021/08/16 05:01:39;;;;;;;153.47;46.50;;;18.10;99.90;;;;;;5093271;28;20436;-72
2021/08/16 05:04:07;;;;;;;134.33;38.70;;;18.10;99.90;;;;;;5093120;28;20506;-71
2021/08/16 05:06:35;;;;;;;164.60;43.70;;;18.10;99.90;;;;;;5092180;28;20435;-72
2021/08/16 05:09:04;;;;;;;127.53;42.10;;;18.10;99.90;;;;;;5093400;28;20474;-72
2021/08/16 05:11:32;;;;;;;160.83;48.90;;;18.10;99.90;;;;;;5093212;28;20457;-72
2021/08/16 05:14:02;;;;;;;164.80;45.23;;;18.10;99.90;;;;;;5092894;28;20480;-71
2021/08/16 05:16:30;;;;;;;14.70;8.00;;;18.10;99.90;;;;;;5092579;28;20467;-71
2021/08/16 05:18:59;;;;;;;109.60;40.10;;;18.10;99.90;;;;;;5093634;28;20437;-72
2021/08/16 05:21:27;;;;;;;137.53;43.87;;;18.10;99.90;;;;;;5093340;28;20432;-72
2021/08/16 05:23:55;;;;;;;121.10;40.40;;;18.10;99.90;;;;;;5093013;28;20525;-72
2021/08/16 05:26:23;;;;;;;156.87;45.70;;;18.10;99.90;;;;;;5092929;28;20478;-72
2021/08/16 05:28:51;;;;;;;113.90;40.93;;;18.10;99.90;;;;;;5093148;28;20440;-71
2021/08/16 05:31:21;;;;;;;168.60;49.20;;;18.10;99.90;;;;;;5093102;28;20954;-72
2021/08/16 05:33:49;;;;;;;135.40;48.90;;;18.10;99.90;;;;;;5108646;28;20492;-71
2021/08/16 05:36:17;;;;;;;118.63;41.93;;;18.10;99.90;;;;;;5092986;28;20439;-72
2021/08/16 05:38:45;;;;;;;17.75;8.60;;;18.10;99.90;;;;;;5091720;28;20539;-72
2021/08/16 05:41:14;;;;;;;120.00;36.13;;;18.20;99.90;;;;;;5093212;28;20576;-72
2021/08/16 05:43:42;;;;;;;13.98;9.20;;;18.30;99.90;;;;;;5092466;28;20524;-71
2021/08/16 05:46:10;;;;;;;105.67;35.97;;;18.40;99.90;;;;;;5093684;28;20213;-71
2021/08/16 05:48:39;;;;;;;205.20;45.93;;;18.40;99.90;;;;;;5093167;28;20486;-71
2021/08/16 05:51:07;;;;;;;185.70;47.70;;;18.40;99.90;;;;;;5092757;28;20436;-72
2021/08/16 05:53:35;;;;;;;151.53;55.93;;;18.40;99.90;;;;;;5091279;28;21016;-71
2021/08/16 05:56:04;;;;;;;161.63;52.20;;;18.40;99.90;;;;;;5092738;28;20436;-72
2021/08/16 05:58:32;;;;;;;194.13;54.73;;;18.40;99.90;;;;;;5091765;28;20547;-72
2021/08/16 06:01:00;;;;;;;176.47;49.67;;;18.50;99.90;;;;;;5093113;28;20432;-72
2021/08/16 06:03:28;;;;;;;146.67;54.53;;;18.50;99.90;;;;;;5095422;28;20452;-71
2021/08/16 06:05:58;;;;;;;14.38;9.63;;;18.50;99.90;;;;;;5094208;28;20857;-72
2021/08/16 06:08:26;;;;;;;118.83;44.77;;;18.50;99.90;;;;;;5096773;28;20208;-71
2021/08/16 06:10:54;;;;;;;14.40;10.70;;;18.50;99.90;;;;;;5095787;28;20440;-72
2021/08/16 06:13:22;;;;;;;167.70;49.17;;;18.60;99.90;;;;;;5095122;28;20582;-71
2021/08/16 06:15:50;;;;;;;134.27;45.77;;;18.60;99.90;;;;;;5095423;28;20531;-71
2021/08/16 06:18:18;;;;;;;140.60;48.47;;;18.50;99.90;;;;;;5096293;28;20435;-72
2021/08/16 06:20:47;;;;;;;175.00;54.70;;;18.50;99.90;;;;;;5096560;28;20429;-71
2021/08/16 06:23:16;;;;;;;186.97;62.20;;;18.50;99.90;;;;;;5096344;28;20452;-72
2021/08/16 06:25:44;;;;;;;160.10;55.03;;;18.50;99.90;;;;;;5096313;28;20494;-72
2021/08/16 06:28:12;;;;;;;156.33;54.67;;;18.50;99.90;;;;;;5096148;28;20433;-72
2021/08/16 06:30:40;;;;;;;194.77;61.17;;;18.60;99.90;;;;;;5094745;28;20459;-71
2021/08/16 06:33:08;;;;;;;15.10;10.88;;;18.60;99.90;;;;;;5094865;28;20981;-71
2021/08/16 06:35:37;;;;;;;129.50;47.53;;;18.70;99.90;;;;;;5095992;28;20525;-72
2021/08/16 06:38:11;;;;;;;14.57;11.57;;;18.80;99.90;;;;;;5095182;28;20475;-71
2021/08/16 06:40:40;;;;;;;161.90;52.80;;;18.80;99.90;;;;;;5096094;28;20175;-71
2021/08/16 06:43:09;;;;;;;141.87;52.47;;;18.80;99.90;;;;;;5095967;28;20468;-72
2021/08/16 06:45:37;;;;;;;115.97;49.27;;;18.80;99.90;;;;;;5096145;28;20479;-71
2021/08/16 06:48:06;;;;;;;173.93;56.23;;;18.90;99.90;;;;;;5095815;28;20471;-72
2021/08/16 06:50:34;;;;;;;180.47;59.27;;;18.90;99.90;;;;;;5094576;28;20474;-71
2021/08/16 06:53:03;;;;;;;142.17;57.97;;;18.90;99.90;;;;;;5095866;28;20881;-72
2021/08/16 06:55:31;;;;;;;149.47;55.47;;;18.90;99.90;;;;;;5095669;28;20440;-71
2021/08/16 06:58:01;;;;;;;187.77;58.53;;;18.90;99.90;;;;;;5111825;28;20543;-72
2021/08/16 07:00:29;;;;;;;183.10;63.70;;;18.90;99.90;;;;;;5096084;28;20789;-71
2021/08/16 07:02:58;;;;;;;187.03;60.83;;;19.00;99.90;;;;;;5095539;28;20452;-71
2021/08/16 07:05:27;;;;;;;16.02;11.98;;;18.90;99.90;;;;;;5094454;28;20439;-72
2021/08/16 07:07:55;;;;;;;170.30;61.83;;;19.00;99.90;;;;;;5095357;28;20187;-71
2021/08/16 07:10:24;;;;;;;186.40;64.80;;;19.10;99.90;;;;;;5095824;28;20515;-71
2021/08/16 07:12:52;;;;;;;155.07;60.70;;;19.00;99.90;;;;;;5095259;28;20444;-71
2021/08/16 07:15:21;;;;;;;216.00;74.17;;;19.00;99.90;;;;;;5095754;28;20802;-72
2021/08/16 07:17:49;;;;;;;175.30;66.83;;;19.00;99.90;;;;;;5111125;28;20444;-71
2021/08/16 07:20:18;;;;;;;179.27;65.00;;;19.00;99.90;;;;;;5095065;28;20489;-72
2021/08/16 07:22:46;;;;;;;181.97;62.43;;;19.00;99.90;;;;;;5094048;28;20559;-71
2021/08/16 07:25:14;;;;;;;200.77;72.67;;;19.00;99.90;;;;;;5094446;28;20459;-72
2021/08/16 07:27:42;;;;;;;15.43;12.40;;;19.00;99.90;;;;;;5093828;28;20942;-72
2021/08/16 07:30:12;;;;;;;194.77;62.23;;;19.10;99.90;;;;;;5093792;28;20531;-71
2021/08/16 07:32:41;;;;;;;15.35;12.82;;;19.10;99.90;;;;;;5094324;28;20947;-72
2021/08/16 07:35:11;;;;;;;147.23;62.47;;;19.10;99.90;;;;;;5095081;28;20612;-71
2021/08/16 07:37:39;;;;;;;120.30;60.63;;;19.10;99.90;;;;;;5093590;28;20436;-71
2021/08/16 07:40:08;;;;;;;141.33;69.97;;;19.10;99.90;;;;;;5094880;28;20444;-71
2021/08/16 07:42:38;;;;;;;190.93;69.23;;;19.00;99.90;;;;;;5094617;28;20825;-71
2021/08/16 07:45:07;;;;;;;188.40;66.57;;;19.00;99.90;;;;;;5093312;28;20441;-71
2021/08/16 07:47:35;;;;;;;161.83;55.83;;;19.10;99.90;;;;;;5094582;28;20472;-71
2021/08/16 07:50:09;;;;;;;220.63;66.27;;;19.00;99.90;;;;;;5094978;28;20472;-72
2021/08/16 07:52:38;;;;;;;207.53;65.50;;;19.10;99.90;;;;;;5093255;28;20541;-72
2021/08/16 07:55:08;;;;;;;187.77;69.67;;;19.10;99.90;;;;;;5093222;28;20441;-72
2021/08/16 07:57:36;;;;;;;205.90;64.00;;;19.00;99.90;;;;;;5094620;28;20429;-71
2021/08/16 08:00:06;;;;;;;15.40;12.98;;;19.00;99.90;;;;;;5092576;28;20440;-71
2021/08/16 08:02:43;;;;;;;185.03;57.53;;;19.10;99.90;;;;;;5094192;28;20570;-71
2021/08/16 08:05:15;;;;;;;176.63;66.70;;;19.00;99.90;;;;;;5093048;28;20448;-72
2021/08/16 08:07:43;;;;;;;214.03;62.27;;;19.10;99.90;;;;;;5095173;28;20453;-71
2021/08/16 08:10:14;;;;;;;180.77;60.10;;;19.00;99.90;;;;;;5095233;28;20501;-71
2021/08/16 08:12:43;;;;;;;182.47;60.17;;;19.00;99.90;;;;;;5095872;28;20480;-71
2021/08/16 08:15:12;;;;;;;199.30;60.50;;;19.00;99.90;;;;;;5093960;28;20840;-71
2021/08/16 08:17:41;;;;;;;247.57;56.73;;;18.90;99.90;;;;;;5094891;28;20872;-72
2021/08/16 08:20:10;;;;;;;179.03;53.37;;;18.90;99.90;;;;;;5095090;28;20436;-71
2021/08/16 08:22:40;;;;;;;13.95;12.18;;;18.90;99.90;;;;;;5093964;28;20436;-72
2021/08/16 08:25:09;;;;;;;171.13;51.00;;;18.90;99.90;;;;;;5094484;28;20202;-72
2021/08/16 08:27:37;;;;;;;14.20;12.30;;;19.00;99.90;;;;;;5094208;28;20444;-72
2021/08/16 08:30:07;;;;;;;164.10;57.97;;;19.00;99.90;;;;;;5094940;28;20198;-72
2021/08/16 08:32:45;;;;;;;170.17;50.80;;;18.90;99.90;;;;;;5094722;28;20463;-72
2021/08/16 08:35:13;;;;;;;191.63;56.13;;;18.90;99.90;;;;;;5093575;28;20432;-71
2021/08/16 08:37:43;;;;;;;179.30;59.20;;;18.80;99.90;;;;;;5095135;28;20954;-71
2021/08/16 08:40:12;;;;;;;157.40;55.83;;;18.80;99.90;;;;;;5094856;28;20451;-72
2021/08/16 08:42:40;;;;;;;166.60;60.13;;;18.70;99.90;;;;;;5094396;28;20838;-72
2021/08/16 08:45:09;;;;;;;176.00;51.53;;;18.70;99.90;;;;;;5094587;28;20447;-72
2021/08/16 08:47:38;;;;;;;128.50;51.27;;;18.70;99.90;;;;;;5093372;28;20547;-72
2021/08/16 08:50:06;;;;;;;15.95;12.48;;;18.60;99.90;;;;;;5092043;28;20437;-72
2021/08/16 08:52:34;;;;;;;132.37;53.37;;;18.60;99.90;;;;;;5110039;28;20594;-72
2021/08/16 08:55:05;;;;;;;14.75;12.35;;;18.60;99.90;;;;;;5092374;28;20443;-71
2021/08/16 08:57:54;;;;;;;122.50;34.53;;;18.50;99.90;;;;;;5094559;28;20226;-71
2021/08/16 09:00:22;;;;;;;188.87;47.80;;;18.40;99.90;;;;;;5094426;28;20444;-71
2021/08/16 09:02:58;;;;;;;133.93;39.80;;;18.30;99.90;;;;;;5094130;28;21040;-71
2021/08/16 09:05:27;;;;;;;207.23;50.47;;;18.30;99.90;;;;;;5109953;28;20440;-71
2021/08/16 09:07:58;;;;;;;165.60;47.57;;;18.20;99.90;;;;;;5094171;28;20468;-71
2021/08/16 09:10:28;;;;;;;165.77;49.37;;;18.10;99.90;;;;;;5109935;28;20490;-70
2021/08/16 09:12:58;;;;;;;207.90;52.20;;;18.10;99.90;;;;;;5094772;28;20978;-70
2021/08/16 09:15:30;;;;;;;170.03;44.40;;;18.10;99.90;;;;;;5095016;28;20417;-70
2021/08/16 09:18:03;;;;;;;140.23;39.47;;;18.00;99.90;;;;;;5095047;28;20445;-70
2021/08/16 09:20:34;;;;;;;201.63;42.50;;;18.10;99.90;;;;;;5094958;28;20455;-70
2021/08/16 09:23:05;;;;;;;5.78;5.10;;;18.10;99.90;;;;;;5093843;28;20972;-70
2021/08/16 09:25:39;;;;;;;117.30;38.60;;;18.20;99.90;;;;;;5093423;28;20187;-70
2021/08/16 09:28:08;;;;;;;159.60;44.83;;;18.20;99.90;;;;;;5094812;28;20547;-70
2021/08/16 09:30:37;;;;;;;160.37;40.27;;;18.20;99.90;;;;;;5094652;28;20433;-70
2021/08/16 09:33:13;;;;;;;183.57;50.13;;;18.20;99.90;;;;;;5093817;28;20563;-71
2021/08/16 09:35:53;;;;;;;165.90;47.70;;;18.20;99.90;;;;;;5091918;28;20523;-70
2021/08/16 09:38:36;;;;;;;140.53;43.93;;;18.10;99.90;;;;;;5097243;28;20512;-70
2021/08/16 09:41:06;;;;;;;195.50;44.63;;;18.10;99.90;;;;;;5095972;28;20532;-70
2021/08/16 09:43:34;;;;;;;87.80;22.30;;;18.00;99.90;;;;;;5095958;28;20802;-70
2021/08/16 09:46:14;;;;;;;124.10;40.50;;;18.00;99.90;;;;;;5097044;28;20451;-70
2021/08/16 09:48:44;;;;;;;157.10;44.87;;;18.00;99.90;;;;;;5097416;28;20459;-70
2021/08/16 09:51:22;;;;;;;183.80;48.60;;;18.00;99.90;;;;;;5097690;28;20420;-70
2021/08/16 09:53:52;;;;;;;249.67;53.60;;;17.90;99.90;;;;;;5096741;28;20567;-70
2021/08/16 09:56:22;;;;;;;273.20;49.47;;;17.90;99.90;;;;;;5096728;28;20837;-70
2021/08/16 09:58:51;;;;;;;153.17;48.83;;;17.80;99.90;;;;;;5095991;28;20420;-70
2021/08/16 10:01:19;;;;;;;187.63;43.33;;;17.80;99.90;;;;;;5095359;28;20441;-70
2021/08/16 10:03:48;;;;;;;140.17;47.70;;;17.80;99.90;;;;;;5096818;28;20483;-71
2021/08/16 10:06:19;;;;;;;172.77;49.13;;;17.70;99.90;;;;;;5096696;28;20931;-71
2021/08/16 10:08:51;;;;;;;161.20;49.67;;;17.70;99.90;;;;;;5097852;28;20460;-70
2021/08/16 10:11:22;;;;;;;5.43;4.40;;;17.70;99.90;;;;;;5094840;28;20432;-70
2021/08/16 10:13:52;;;;;;;123.17;39.10;;;17.70;99.90;;;;;;5098139;28;20689;-70
2021/08/16 10:16:29;;;;;;;141.75;35.63;;;17.70;99.90;;;;;;5096884;28;20332;-70
2021/08/16 10:19:02;;;;;;;151.07;46.63;;;17.70;99.90;;;;;;5111970;28;20190;-70
2021/08/16 10:21:32;;;;;;;200.77;48.63;;;17.60;99.90;;;;;;5096520;28;20836;-71
2021/08/16 10:24:03;;;;;;;161.73;42.30;;;17.60;99.90;;;;;;5094820;28;20471;-70
2021/08/16 10:26:35;;;;;;;172.40;43.27;;;17.60;99.90;;;;;;5096342;28;20440;-70
2021/08/16 10:29:06;;;;;;;138.50;44.03;;;17.60;99.90;;;;;;5099341;28;20459;-70
2021/08/16 10:31:36;;;;;;;190.73;45.00;;;17.70;99.90;;;;;;5098360;28;20417;-70
2021/08/16 10:34:05;;;;;;;189.00;41.83;;;17.70;99.90;;;;;;5098320;28;20455;-70
2021/08/16 10:36:34;;;;;;;172.73;48.87;;;17.70;99.90;;;;;;5099368;28;20468;-70
2021/08/16 10:39:04;;;;;;;69.20;19.25;;;17.70;99.90;;;;;;5098412;28;20441;-70
2021/08/16 10:41:39;;;;;;;113.43;39.13;;;17.70;99.90;;;;;;5100284;28;20630;-70
2021/08/16 10:44:13;;;;;;;149.07;40.97;;;17.80;99.90;;;;;;5099044;28;20466;-70
2021/08/16 10:46:42;;;;;;;227.03;51.30;;;17.80;99.90;;;;;;5096735;28;20412;-70
2021/08/16 10:49:13;;;;;;;231.80;55.20;;;17.80;99.90;;;;;;5093543;28;20456;-70
2021/08/16 10:51:44;;;;;;;172.87;55.67;;;17.80;99.90;;;;;;5094214;28;20445;-70
2021/08/16 10:54:23;;;;;;;174.17;52.60;;;17.80;99.90;;;;;;5094554;28;20501;-70
2021/08/16 10:56:54;;;;;;;195.80;54.03;;;17.80;99.90;;;;;;5095849;28;20426;-70
2021/08/16 10:59:24;;;;;;;160.27;44.47;;;17.90;99.90;;;;;;5095807;28;20421;-70
2021/08/16 11:01:53;;;;;;;164.53;50.77;;;17.90;99.90;;;;;;5094197;28;20440;-70
2021/08/16 11:04:32;;;;;;;193.93;53.50;;;17.90;99.90;;;;;;5095824;28;20420;-70
2021/08/16 11:07:02;;;;;;;37.17;12.05;;;17.90;99.90;;;;;;5094115;28;20452;-70
2021/08/16 11:09:33;;;;;;;165.27;50.13;;;17.90;99.90;;;;;;5095462;28;20286;-70
2021/08/16 11:12:05;;;;;;;167.07;42.65;;;17.90;99.90;;;;;;5095011;28;20437;-70
2021/08/16 11:14:35;;;;;;;143.47;47.03;;;17.90;99.90;;;;;;5093858;28;20194;-70
2021/08/16 11:17:04;;;;;;;192.67;58.93;;;17.90;99.90;;;;;;5094762;28;20464;-70
2021/08/16 11:19:42;;;;;;;187.30;55.60;;;17.90;99.90;;;;;;5095536;28;20530;-70
2021/08/16 11:22:11;;;;;;;182.57;55.33;;;17.80;99.90;;;;;;5095475;28;20509;-70
2021/08/16 11:24:41;;;;;;;190.53;67.53;;;17.70;99.90;;;;;;5094899;28;20442;-70
2021/08/16 11:27:12;;;;;;;171.37;61.57;;;17.60;99.90;;;;;;5095076;28;20440;-70
2021/08/16 11:29:41;;;;;;;50.70;48.70;;;17.50;99.90;;;;;;5110419;28;21037;-70
2021/08/16 11:32:10;;;;;;;187.33;74.13;;;17.40;99.90;;;;;;5094670;28;20425;-70
2021/08/16 11:34:47;;;;;;;56.55;26.30;;;17.30;99.90;;;;;;5094299;28;20468;-70
2021/08/16 11:37:16;;;;;;;179.97;62.37;;;17.20;99.90;;;;;;5093385;28;20186;-71
2021/08/16 11:39:47;;;;;;;153.67;63.10;;;17.10;99.90;;;;;;5095160;28;20435;-70
2021/08/16 11:42:39;;;;;;;182.67;56.47;;;17.00;99.90;;;;;;5095104;28;20464;-70
2021/08/16 11:45:09;;;;;;;208.07;59.57;;;16.90;99.90;;;;;;5094511;28;20523;-70
2021/08/16 11:47:39;;;;;;;170.30;57.90;;;16.90;99.90;;;;;;5094729;28;20444;-71
2021/08/16 11:50:09;;;;;;;196.63;63.17;;;16.80;99.90;;;;;;5094376;28;20958;-71
2021/08/16 11:52:38;;;;;;;148.27;57.60;;;16.80;99.90;;;;;;5092898;28;20561;-70
2021/08/16 11:55:08;;;;;;;184.07;51.57;;;16.70;99.90;;;;;;5094360;28;20441;-70
2021/08/16 11:57:38;;;;;;;162.37;54.20;;;16.70;99.90;;;;;;5094230;28;20429;-70
2021/08/16 12:00:08;;;;;;;204.93;50.63;;;16.60;99.90;;;;;;5093524;28;20798;-70
2021/08/16 12:02:41;;;;;;;68.22;20.00;;;16.70;99.90;;;;;;5094068;28;20444;-70
2021/08/16 12:05:10;;;;;;;143.57;43.83;;;16.70;99.90;;;;;;5094111;28;20198;-70
2021/08/16 12:07:38;;;;;;;217.53;50.17;;;16.70;99.90;;;;;;5094336;28;20547;-70
2021/08/16 12:10:16;;;;;;;6.90;5.15;;;16.70;99.90;;;;;;5093092;28;20440;-70
2021/08/16 12:12:57;;;;;;;217.80;43.87;;;16.90;99.90;;;;;;5093862;28;20308;-70
2021/08/16 12:15:25;;;;;;;138.47;53.03;;;16.90;99.90;;;;;;5092714;28;20440;-70
2021/08/16 12:18:04;;;;;;;179.73;55.90;;;16.90;99.90;;;;;;5092574;28;20436;-70
2021/08/16 12:20:40;;;;;;;146.00;54.97;;;16.90;99.90;;;;;;5092572;28;20536;-70
2021/08/16 12:23:08;;;;;;;174.73;53.27;;;16.90;99.90;;;;;;5094027;28;20924;-70
2021/08/16 12:25:46;;;;;;;151.80;48.37;;;16.90;99.90;;;;;;5093779;28;20433;-70
2021/08/16 12:28:16;;;;;;;158.80;56.43;;;17.00;99.90;;;;;;5093688;28;20802;-70
2021/08/16 12:30:44;;;;;;;208.55;56.53;;;17.00;99.90;;;;;;5093822;28;20403;-70
2021/08/16 12:33:14;;;;;;;182.37;65.53;;;17.00;99.90;;;;;;5093519;28;20206;-70